Time;durP1;ratioP1;P1;durP2;ratioP2;P2;SDS_P1;SDS_P2;PMS_P1;PMS_P2;Temp;Humidity;BMP_temperature;BMP_pressure;BME280_temperature;BME280_humidity;BME280_pressure;Samples;Min_cycle;Max_cycle;Signal;HPM_P1;HPM_P2
2023/09/04 00:00:58;;;;;;;11.10;7.20;;;;;;;18.57;68.22;100108.77;105947;1260;60508;-74
2023/09/04 00:03:26;;;;;;;7.30;6.30;;;;;;;18.55;68.19;100108.94;105706;1256;60326;-75
2023/09/04 00:05:54;;;;;;;6.80;6.10;;;;;;;18.55;68.01;100114.40;105898;1254;72711;-72
2023/09/04 00:08:21;;;;;;;9.80;6.90;;;;;;;18.53;67.94;100112.13;106054;1254;70377;-73
2023/09/04 00:10:49;;;;;;;7.30;6.40;;;;;;;18.51;67.93;100118.01;106122;1254;73182;-73
2023/09/04 00:13:17;;;;;;;6.70;6.00;;;;;;;18.49;67.69;100118.77;106383;1256;60438;-75
2023/09/04 00:15:44;;;;;;;6.70;6.00;;;;;;;18.47;67.76;100119.34;106276;1254;60496;-73
2023/09/04 00:18:13;;;;;;;7.70;6.20;;;;;;;18.45;67.97;100118.84;105862;1253;72724;-74
2023/09/04 00:20:40;;;;;;;6.60;5.80;;;;;;;18.44;68.05;100119.65;105872;1257;68719;-73
2023/09/04 00:23:08;;;;;;;6.70;6.00;;;;;;;18.51;67.99;100118.92;105953;1254;72644;-72
2023/09/04 00:25:35;;;;;;;7.80;5.90;;;;;;;18.56;67.98;100125.36;105540;1254;60394;-72
2023/09/04 00:28:03;;;;;;;6.50;5.60;;;;;;;18.54;67.80;100124.88;105875;1254;60341;-72
2023/09/04 00:30:31;;;;;;;7.50;5.90;;;;;;;18.52;67.56;100124.30;105856;1260;73833;-74
2023/09/04 00:32:58;;;;;;;8.30;6.00;;;;;;;18.49;67.30;100125.38;105702;1254;68765;-72
2023/09/04 00:35:26;;;;;;;7.90;6.20;;;;;;;18.47;67.23;100126.54;105598;1254;71931;-73
2023/09/04 00:37:54;;;;;;;7.10;6.00;;;;;;;18.45;67.24;100123.98;105861;1257;60419;-74
2023/09/04 00:40:21;;;;;;;7.40;6.70;;;;;;;18.42;67.23;100117.01;106028;1254;61171;-74
2023/09/04 00:42:49;;;;;;;7.30;5.90;;;;;;;18.40;67.31;100116.05;105831;1259;74089;-73
2023/09/04 00:45:17;;;;;;;6.90;6.20;;;;;;;18.37;67.16;100120.52;105725;1260;69970;-72
2023/09/04 00:47:44;;;;;;;7.30;6.30;;;;;;;18.36;67.22;100121.84;105761;1257;72660;-73
2023/09/04 00:50:15;;;;;;;7.00;6.30;;;;;;;18.33;67.18;100123.59;105644;1259;60512;-72
2023/09/04 00:52:43;;;;;;;7.50;6.70;;;;;;;18.32;67.27;100126.53;105212;1258;348921;-73
2023/09/04 00:56:51;;;;;;;8.00;6.80;;;;;;;18.29;67.48;100121.45;102749;1295;600321;-73
2023/09/04 00:59:19;;;;;;;6.80;6.10;;;;;;;18.26;67.32;100122.37;104431;1271;60509;-73
2023/09/04 01:01:46;;;;;;;6.30;5.60;;;;;;;18.33;67.27;100124.39;104805;1273;59325;-72
2023/09/04 01:04:13;;;;;;;6.90;6.10;;;;;;;18.37;67.15;100125.54;104453;1269;71926;-72
2023/09/04 01:06:41;;;;;;;8.00;6.40;;;;;;;18.37;67.11;100125.65;104935;1260;70286;-71
2023/09/04 01:09:09;;;;;;;7.20;5.90;;;;;;;18.35;67.14;100123.69;105308;1267;70678;-73
2023/09/04 01:11:38;;;;;;;7.50;6.00;;;;;;;18.34;67.00;100128.02;105333;1264;225485;-74
2023/09/04 01:14:10;;;;;;;7.60;6.10;;;;;;;18.32;67.06;100125.02;105602;1263;60036;-73
2023/09/04 01:16:38;;;;;;;6.90;6.10;;;;;;;18.31;67.16;100123.64;105546;1263;72306;-72
2023/09/04 01:19:06;;;;;;;7.30;5.70;;;;;;;18.28;67.55;100123.39;105230;1263;68899;-74
2023/09/04 01:21:37;;;;;;;7.00;6.30;;;;;;;18.25;67.12;100123.61;105616;1261;71167;-74
2023/09/04 01:24:07;;;;;;;7.20;5.80;;;;;;;18.22;67.02;100125.11;105604;1263;60953;-73
2023/09/04 01:26:41;;;;;;;6.20;5.60;;;;;;;18.18;67.14;100124.90;105694;1259;59692;-72
2023/09/04 01:29:58;;;;;;;8.20;6.30;;;;;;;18.15;67.32;100124.83;106419;1263;73056;-73
2023/09/04 01:32:31;;;;;;;7.00;6.30;;;;;;;18.12;67.62;100127.80;105119;1266;69583;-73
2023/09/04 01:34:59;;;;;;;;;;;;;;;18.08;67.79;100130.36;105416;1258;72697;-73
2023/09/04 01:37:26;;;;;;;7.30;5.80;;;;;;;18.06;67.95;100128.17;105436;1267;59746;-73
2023/09/04 01:39:54;;;;;;;6.90;5.60;;;;;;;18.03;68.02;100125.83;105457;1268;59980;-72
2023/09/04 01:42:21;;;;;;;6.90;5.50;;;;;;;18.10;67.84;100129.79;105512;1260;73143;-73
2023/09/04 01:44:49;;;;;;;6.90;6.20;;;;;;;18.15;67.81;100130.23;105194;1263;69833;-73
2023/09/04 01:47:17;;;;;;;6.60;5.90;;;;;;;18.14;67.83;100131.23;105361;1254;72783;-73
2023/09/04 01:49:45;;;;;;;7.00;6.20;;;;;;;18.14;67.83;100132.14;105549;1260;60013;-71
2023/09/04 01:52:12;;;;;;;5.80;5.20;;;;;;;18.14;67.58;100135.77;105558;1259;59740;-72
2023/09/04 01:54:40;;;;;;;8.30;5.50;;;;;;;18.12;67.47;100137.23;105509;1253;71773;-74
2023/09/04 01:57:07;;;;;;;7.70;5.70;;;;;;;18.10;67.39;100136.32;105516;1258;68354;-74
2023/09/04 01:59:35;;;;;;;7.50;5.60;;;;;;;18.07;67.60;100137.81;105632;1257;72690;-71
2023/09/04 02:02:02;;;;;;;6.50;5.50;;;;;;;18.04;67.76;100137.36;105834;1257;60115;-73
2023/09/04 02:04:31;;;;;;;8.90;6.80;;;;;;;18.00;67.43;100140.59;105704;1254;59737;-73
2023/09/04 02:06:59;;;;;;;7.10;6.10;;;;;;;17.97;67.10;100136.58;105858;1255;71834;-74
2023/09/04 02:09:26;;;;;;;7.10;6.40;;;;;;;17.93;67.10;100140.66;105751;1259;68853;-74
2023/09/04 02:11:54;;;;;;;6.60;5.60;;;;;;;17.90;67.05;100143.23;105175;1259;72689;-73
2023/09/04 02:14:21;;;;;;;8.40;5.90;;;;;;;17.86;66.85;100144.84;105291;1259;60096;-72
2023/09/04 02:16:48;;;;;;;8.20;6.20;;;;;;;17.83;66.90;100145.44;105220;1260;60208;-73
2023/09/04 02:19:16;;;;;;;6.60;5.90;;;;;;;17.78;66.93;100147.30;105418;1254;71823;-72
2023/09/04 02:21:43;;;;;;;6.70;5.40;;;;;;;17.76;66.92;100144.73;105577;1254;70226;-71
2023/09/04 02:24:11;;;;;;;6.40;5.60;;;;;;;17.74;66.85;100145.67;105275;1261;72570;-72
2023/09/04 02:26:38;;;;;;;6.10;5.50;;;;;;;17.73;66.88;100149.10;105334;1261;59737;-73
2023/09/04 02:29:05;;;;;;;6.20;5.60;;;;;;;17.71;66.90;100145.58;105220;1257;59838;-71
2023/09/04 02:31:33;;;;;;;8.50;6.10;;;;;;;17.69;66.88;100146.48;105499;1263;71981;-71
2023/09/04 02:34:00;;;;;;;6.80;5.30;;;;;;;17.68;66.86;100145.27;105354;1261;69395;-71
2023/09/04 02:36:28;;;;;;;6.20;5.50;;;;;;;17.75;66.84;100140.95;105396;1253;72449;-69
2023/09/04 02:38:55;;;;;;;7.30;5.00;;;;;;;17.81;66.77;100140.63;105365;1253;60069;-71
2023/09/04 02:41:23;;;;;;;7.80;6.30;;;;;;;17.82;66.65;100137.83;105787;1255;59737;-75
2023/09/04 02:43:50;;;;;;;7.40;5.70;;;;;;;17.80;66.55;100136.58;105640;1260;72892;-73
2023/09/04 02:46:18;;;;;;;9.40;6.60;;;;;;;17.79;66.62;100138.94;105631;1260;70298;-74
2023/09/04 02:48:46;;;;;;;6.70;5.70;;;;;;;17.79;66.49;100137.73;105577;1254;72450;-73
2023/09/04 02:51:13;;;;;;;6.80;5.70;;;;;;;17.77;66.46;100139.55;105780;1258;59672;-73
2023/09/04 02:53:41;;;;;;;7.80;6.40;;;;;;;17.75;66.48;100142.13;105715;1254;60076;-73
2023/09/04 02:56:10;;;;;;;8.40;5.80;;;;;;;17.74;66.67;100142.11;105403;1254;72184;-73
2023/09/04 02:58:38;;;;;;;7.80;6.00;;;;;;;17.71;66.82;100143.72;105749;1260;69115;-73
2023/09/04 03:01:05;;;;;;;6.70;5.50;;;;;;;17.68;66.88;100143.55;105510;1260;72706;-74
2023/09/04 03:03:32;;;;;;;7.50;6.20;;;;;;;17.66;67.01;100143.84;105729;1258;59650;-71
2023/09/04 03:06:07;;;;;;;8.80;5.70;;;;;;;17.64;67.14;100145.98;105910;1253;59682;-72
2023/09/04 03:08:35;;;;;;;9.10;6.20;;;;;;;17.60;67.27;100150.48;105571;1259;73325;-74
2023/09/04 03:11:09;;;;;;;7.90;5.80;;;;;;;17.55;67.68;100149.65;105199;1254;70031;-73
2023/09/04 03:13:37;;;;;;;9.30;5.70;;;;;;;17.61;67.86;100149.25;105663;1257;72463;-73
2023/09/04 03:16:08;;;;;;;6.10;5.50;;;;;;;17.65;68.19;100150.46;105558;1254;60299;-75
2023/09/04 03:18:35;;;;;;;7.20;6.40;;;;;;;17.63;68.19;100149.13;105647;1258;60008;-74
2023/09/04 03:21:04;;;;;;;7.70;6.50;;;;;;;17.60;68.34;100148.95;105751;1260;73141;-73
2023/09/04 03:23:33;;;;;;;9.80;6.70;;;;;;;17.60;68.49;100150.82;105676;1254;69250;-73
2023/09/04 03:26:01;;;;;;;8.90;6.50;;;;;;;17.58;68.50;100146.19;105776;1260;72353;-71
2023/09/04 03:28:29;;;;;;;11.40;7.00;;;;;;;17.56;68.61;100147.28;105283;1260;60842;-71
2023/09/04 03:30:57;;;;;;;11.20;7.50;;;;;;;17.52;68.75;100144.89;105205;1260;60295;-74
2023/09/04 03:33:24;;;;;;;8.70;7.10;;;;;;;17.49;69.13;100144.73;105173;1256;72034;-71
2023/09/04 03:35:52;;;;;;;8.50;7.60;;;;;;;17.45;69.21;100143.30;105311;1260;68426;-72
2023/09/04 03:38:19;;;;;;;9.00;6.50;;;;;;;17.42;69.32;100148.68;105635;1266;72674;-71
2023/09/04 03:40:47;;;;;;;8.80;7.00;;;;;;;17.49;69.42;100151.33;107550;1258;60483;-72
2023/09/04 03:43:15;;;;;;;7.30;6.60;;;;;;;17.53;69.41;100155.80;107455;1259;59478;-71
2023/09/04 03:45:44;;;;;;;8.60;6.10;;;;;;;17.52;69.53;100155.96;107197;1256;71873;-72
2023/09/04 03:48:12;;;;;;;8.90;6.20;;;;;;;17.51;69.55;100156.50;106145;1254;68816;-74
2023/09/04 03:50:39;;;;;;;9.20;6.70;;;;;;;17.50;69.54;100156.42;106361;1255;72504;-72
2023/09/04 03:53:07;;;;;;;9.80;6.50;;;;;;;17.50;69.70;100158.41;105773;1259;60106;-74
2023/09/04 03:55:34;;;;;;;7.80;6.60;;;;;;;17.49;69.64;100161.54;105616;1260;59603;-74
2023/09/04 03:58:03;;;;;;;8.30;7.10;;;;;;;17.48;69.59;100162.16;105578;1254;71279;-73
2023/09/04 04:00:30;;;;;;;10.00;7.40;;;;;;;17.48;69.68;100159.55;105697;1254;70205;-74
2023/09/04 04:03:00;;;;;;;8.70;7.10;;;;;;;17.48;69.70;100158.11;105556;1271;71407;-72
2023/09/04 04:05:29;;;;;;;7.70;6.10;;;;;;;17.59;69.67;100157.96;105660;1256;61720;-73
2023/09/04 04:07:56;;;;;;;9.40;6.20;;;;;;;17.67;69.52;100166.70;105742;1259;60042;-74
2023/09/04 04:10:24;;;;;;;10.10;6.60;;;;;;;17.68;69.50;100164.23;105719;1254;73083;-74
2023/09/04 04:12:53;;;;;;;7.70;6.90;;;;;;;17.69;69.58;100167.52;105513;1259;69726;-75
2023/09/04 04:15:21;;;;;;;8.50;7.20;;;;;;;17.69;69.63;100167.44;105592;1258;72692;-74
2023/09/04 04:17:48;;;;;;;8.30;6.60;;;;;;;17.71;69.76;100171.73;105581;1261;60099;-74
2023/09/04 04:20:17;;;;;;;8.70;7.20;;;;;;;17.72;69.89;100173.60;105442;1254;60264;-74
2023/09/04 04:22:45;;;;;;;9.10;7.90;;;;;;;17.71;70.01;100178.36;105670;1254;71954;-74
2023/09/04 04:25:13;;;;;;;9.50;7.00;;;;;;;17.71;70.19;100178.41;105459;1260;68850;-74
2023/09/04 04:27:41;;;;;;;9.50;6.60;;;;;;;17.78;70.35;100171.55;105460;1254;72442;-73
2023/09/04 04:30:09;;;;;;;9.40;7.80;;;;;;;17.84;70.20;100169.30;105662;1258;59683;-73
2023/09/04 04:32:37;;;;;;;8.00;6.50;;;;;;;17.84;70.11;100165.34;105606;1257;59540;-74
2023/09/04 04:35:05;;;;;;;8.20;7.40;;;;;;;17.84;69.95;100175.30;105498;1255;72098;-74
2023/09/04 04:37:33;;;;;;;8.20;6.60;;;;;;;17.85;69.88;100176.89;105870;1254;68923;-75
2023/09/04 04:40:03;;;;;;;8.40;7.30;;;;;;;17.85;69.90;100177.92;105692;1259;71470;-74
2023/09/04 04:42:32;;;;;;;10.70;7.50;;;;;;;17.86;69.91;100181.02;105747;1257;59637;-75
2023/09/04 04:45:00;;;;;;;8.60;7.80;;;;;;;17.85;70.03;100177.95;105692;1260;60082;-75
2023/09/04 04:47:28;;;;;;;9.90;6.80;;;;;;;17.85;70.09;100175.06;105600;1259;73158;-73
2023/09/04 04:49:56;;;;;;;10.20;7.50;;;;;;;17.93;70.10;100180.27;105810;1254;69596;-74
2023/09/04 04:52:23;;;;;;;12.60;7.40;;;;;;;18.01;70.04;100179.14;105865;1257;72697;-73
2023/09/04 04:54:51;;;;;;;8.40;7.20;;;;;;;18.06;70.11;100179.84;105584;1257;59849;-70
2023/09/04 04:57:18;;;;;;;9.70;7.80;;;;;;;18.10;70.18;100177.15;105490;1258;59563;-70
2023/09/04 04:59:45;;;;;;;9.00;7.80;;;;;;;18.14;70.11;100181.36;105700;1254;73070;-72
2023/09/04 05:02:16;;;;;;;11.00;8.10;;;;;;;18.18;70.12;100186.13;105595;1254;70806;-72
2023/09/04 05:04:47;;;;;;;9.90;7.60;;;;;;;18.21;70.00;100186.38;105628;1260;72437;-70
2023/09/04 05:07:16;;;;;;;10.00;8.00;;;;;;;18.24;69.93;100190.05;105339;1257;60628;-69
2023/09/04 05:09:43;;;;;;;8.80;7.00;;;;;;;18.25;69.93;100187.54;105359;1260;60354;-73
2023/09/04 05:12:11;;;;;;;9.30;7.40;;;;;;;18.27;69.81;100183.77;105262;1261;73916;-73
2023/09/04 05:14:38;;;;;;;8.20;7.10;;;;;;;18.35;69.58;100183.30;105569;1261;69078;-74
2023/09/04 05:17:06;;;;;;;8.60;7.00;;;;;;;18.39;69.54;100188.31;105543;1257;72798;-73
2023/09/04 05:19:34;;;;;;;11.00;7.40;;;;;;;18.39;69.57;100191.33;105649;1254;60610;-73
2023/09/04 05:22:01;;;;;;;9.60;7.30;;;;;;;18.42;69.75;100193.85;105472;1256;60455;-73
2023/09/04 05:24:28;;;;;;;10.10;7.50;;;;;;;18.46;69.55;100198.02;105597;1257;73776;-73
2023/09/04 05:26:56;;;;;;;14.10;8.00;;;;;;;18.50;69.35;100197.31;105408;1259;69702;-73
2023/09/04 05:29:23;;;;;;;8.80;7.50;;;;;;;18.53;69.16;100199.64;105550;1253;71259;-72
2023/09/04 05:31:51;;;;;;;9.20;7.40;;;;;;;18.57;69.07;100197.89;105541;1258;61016;-72
2023/09/04 05:34:19;;;;;;;9.30;7.80;;;;;;;18.61;69.06;100202.84;105375;1259;60432;-71
2023/09/04 05:36:46;;;;;;;12.60;7.20;;;;;;;18.64;68.97;100205.25;105420;1255;73869;-72
2023/09/04 05:39:14;;;;;;;9.00;6.90;;;;;;;18.66;68.90;100206.48;105780;1259;68875;-72
2023/09/04 05:41:42;;;;;;;8.70;6.50;;;;;;;18.78;68.92;100212.93;105492;1260;72622;-70
2023/09/04 05:44:10;;;;;;;8.10;7.30;;;;;;;18.92;68.68;100217.55;105581;1259;60403;-72
2023/09/04 05:46:38;;;;;;;11.10;6.80;;;;;;;18.97;68.55;100218.04;105166;1256;60838;-72
2023/09/04 05:49:05;;;;;;;10.20;7.10;;;;;;;19.01;68.44;100221.08;105276;1257;74280;-71
2023/09/04 05:51:32;;;;;;;10.50;7.80;;;;;;;19.04;68.15;100221.95;105280;1260;70309;-70
2023/09/04 05:54:00;;;;;;;7.70;7.00;;;;;;;19.08;67.94;100224.96;105240;1256;74213;-73
2023/09/04 05:56:27;;;;;;;9.90;7.80;;;;;;;19.15;67.81;100223.61;105352;1257;60557;-73
2023/09/04 05:58:56;;;;;;;13.40;7.50;;;;;;;19.23;67.62;100224.66;106070;1254;60347;-73
2023/09/04 06:01:24;;;;;;;8.90;7.10;;;;;;;19.32;67.26;100225.09;106458;1254;75107;-74
2023/09/04 06:03:51;;;;;;;8.40;7.10;;;;;;;19.37;67.04;100222.57;106109;1254;70300;-72
2023/09/04 06:06:19;;;;;;;12.00;7.80;;;;;;;19.46;66.80;100221.33;105876;1254;71150;-74
2023/09/04 06:08:47;;;;;;;8.40;7.30;;;;;;;19.55;66.59;100225.30;105753;1253;60494;-75
2023/09/04 06:11:15;;;;;;;12.60;7.60;;;;;;;19.62;66.30;100226.46;105826;1254;60442;-74
2023/09/04 06:13:42;;;;;;;7.80;6.50;;;;;;;19.70;65.82;100227.64;105763;1253;73887;-72
2023/09/04 06:16:12;;;;;;;11.50;7.20;;;;;;;19.77;65.55;100231.13;105648;1259;70415;-72
2023/09/04 06:18:40;;;;;;;14.30;7.90;;;;;;;19.85;65.47;100235.65;105294;1260;71958;-74
2023/09/04 06:21:07;;;;;;;8.30;6.60;;;;;;;19.87;65.32;100237.16;105315;1258;60540;-75
2023/09/04 06:23:35;;;;;;;9.90;7.40;;;;;;;19.89;64.89;100238.08;105951;1253;60358;-73
2023/09/04 06:26:05;;;;;;;9.20;6.90;;;;;;;19.87;64.68;100237.76;105971;1254;73962;-74
2023/09/04 06:28:33;;;;;;;11.30;6.50;;;;;;;19.85;64.66;100237.92;105782;1254;70018;-75
2023/09/04 06:31:01;;;;;;;9.90;7.30;;;;;;;19.83;64.52;100237.86;105825;1258;72476;-74
2023/09/04 06:33:33;;;;;;;9.80;6.50;;;;;;;19.81;64.47;100244.91;105769;1253;60519;-72
2023/09/04 06:36:01;;;;;;;9.10;7.20;;;;;;;19.79;64.18;100244.36;105509;1253;60432;-73
2023/09/04 06:38:28;;;;;;;7.90;6.40;;;;;;;19.78;64.44;100250.91;105514;1253;72619;-73
2023/09/04 06:40:59;;;;;;;11.50;7.00;;;;;;;19.82;64.46;100250.86;105479;1253;70175;-72
2023/09/04 06:43:27;;;;;;;9.50;6.40;;;;;;;19.85;64.47;100248.92;105558;1257;71695;-75
2023/09/04 06:45:55;;;;;;;7.60;6.60;;;;;;;19.92;64.35;100252.54;105490;1261;60573;-72
2023/09/04 06:48:22;;;;;;;7.50;6.10;;;;;;;19.98;64.09;100255.56;105641;1259;60367;-73
2023/09/04 06:50:51;;;;;;;7.40;5.80;;;;;;;20.03;63.82;100257.31;105582;1254;72593;-74
2023/09/04 06:53:18;;;;;;;8.00;6.00;;;;;;;20.07;63.67;100261.64;105403;1253;70092;-73
2023/09/04 06:55:49;;;;;;;8.80;6.50;;;;;;;20.14;63.79;100265.20;105468;1254;71733;-70
2023/09/04 06:58:17;;;;;;;9.80;7.30;;;;;;;20.21;63.56;100264.70;105526;1256;60448;-73
2023/09/04 07:00:44;;;;;;;8.00;6.80;;;;;;;20.30;63.30;100264.35;105554;1253;60537;-73
2023/09/04 07:03:12;;;;;;;10.30;6.80;;;;;;;20.38;63.35;100257.64;105463;1253;73044;-73
2023/09/04 07:05:39;;;;;;;8.00;6.30;;;;;;;20.52;63.29;100263.28;105372;1260;69330;-73
2023/09/04 07:08:07;;;;;;;7.60;6.30;;;;;;;20.65;62.96;100263.50;105206;1256;75111;-72
2023/09/04 07:10:35;;;;;;;9.80;6.50;;;;;;;20.77;62.55;100265.77;105428;1254;60470;-72
2023/09/04 07:13:03;;;;;;;10.20;7.50;;;;;;;20.90;62.16;100269.58;105512;1259;60848;-73
2023/09/04 07:15:30;;;;;;;7.70;6.10;;;;;;;21.04;61.67;100272.05;105761;1253;72636;-71
2023/09/04 07:17:59;;;;;;;8.10;6.80;;;;;;;21.16;61.27;100272.13;105542;1259;68991;-72
2023/09/04 07:20:27;;;;;;;11.10;7.10;;;;;;;21.26;61.03;100275.92;105540;1253;72723;-73
2023/09/04 07:22:55;;;;;;;7.80;6.20;;;;;;;21.34;60.83;100278.41;105351;1253;60534;-72
2023/09/04 07:25:36;;;;;;;9.00;6.50;;;;;;;21.44;60.59;100281.05;105477;1258;60429;-73
2023/09/04 07:28:04;;;;;;;8.20;6.90;;;;;;;21.52;60.43;100281.84;105910;1256;73841;-72
2023/09/04 07:30:31;;;;;;;8.00;6.60;;;;;;;21.61;60.22;100285.01;105477;1254;70186;-72
2023/09/04 07:32:59;;;;;;;9.00;5.90;;;;;;;21.69;60.23;100286.95;105480;1255;72344;-73
2023/09/04 07:35:27;;;;;;;15.10;6.00;;;;;;;21.78;60.28;100283.11;105367;1260;60432;-72
2023/09/04 07:37:55;;;;;;;7.70;6.10;;;;;;;21.92;60.00;100284.61;105346;1260;60442;-73
2023/09/04 07:40:22;;;;;;;7.20;6.00;;;;;;;22.05;59.66;100287.62;105467;1254;72564;-72
2023/09/04 07:42:49;;;;;;;10.00;6.00;;;;;;;22.20;59.32;100286.65;105385;1259;68195;-73
2023/09/04 07:45:17;;;;;;;8.60;5.80;;;;;;;22.37;59.08;100283.26;105347;1253;71512;-72
2023/09/04 07:47:44;;;;;;;9.20;5.30;;;;;;;22.56;58.65;100281.44;105464;1253;60553;-72
2023/09/04 07:50:12;;;;;;;8.40;6.00;;;;;;;22.73;57.63;100288.56;105331;1254;60465;-72
2023/09/04 07:52:40;;;;;;;12.40;6.00;;;;;;;22.85;57.05;100286.44;105443;1258;73364;-73
2023/09/04 07:55:09;;;;;;;9.20;5.70;;;;;;;22.97;57.10;100288.30;105464;1260;68921;-71
2023/09/04 07:57:37;;;;;;;12.20;5.80;;;;;;;23.14;56.78;100287.28;105425;1254;72657;-73
2023/09/04 08:00:05;;;;;;;7.10;6.20;;;;;;;23.27;55.94;100290.77;105219;1253;60394;-73
2023/09/04 08:02:39;;;;;;;7.80;5.80;;;;;;;23.33;55.84;100290.95;105329;1258;60524;-72
2023/09/04 08:05:07;;;;;;;6.70;5.50;;;;;;;23.38;55.41;100294.40;105383;1253;71692;-71
2023/09/04 08:07:35;;;;;;;9.90;5.80;;;;;;;23.40;55.27;100293.69;105444;1257;68872;-73
2023/09/04 08:10:02;;;;;;;7.70;6.30;;;;;;;23.45;55.13;100296.39;105342;1254;72778;-72
2023/09/04 08:12:30;;;;;;;6.90;5.70;;;;;;;23.52;55.00;100293.28;105203;1253;60550;-72
2023/09/04 08:14:58;;;;;;;9.50;5.70;;;;;;;23.58;54.90;100292.31;105359;1256;60445;-71
2023/09/04 08:17:26;;;;;;;8.10;5.50;;;;;;;23.66;54.68;100293.69;105180;1253;72705;-73
2023/09/04 08:19:53;;;;;;;9.50;5.00;;;;;;;23.78;54.52;100299.00;105392;1258;70452;-72
2023/09/04 08:22:21;;;;;;;7.40;6.10;;;;;;;23.88;54.23;100298.79;105304;1260;73162;-72
2023/09/04 08:24:50;;;;;;;10.30;4.50;;;;;;;23.96;53.39;100300.30;105416;1253;60842;-72
2023/09/04 08:27:18;;;;;;;5.10;4.30;;;;;;;23.99;52.92;100297.85;105670;1256;60971;-72
2023/09/04 08:29:45;;;;;;;7.90;4.80;;;;;;;24.01;52.54;100297.41;105463;1258;75758;-71
2023/09/04 08:32:13;;;;;;;8.10;4.70;;;;;;;24.06;52.52;100297.93;105311;1253;70002;-71
2023/09/04 08:34:40;;;;;;;12.40;5.00;;;;;;;24.12;52.55;100296.58;105394;1256;72604;-70
2023/09/04 08:37:08;;;;;;;7.90;4.80;;;;;;;24.23;52.47;100295.13;105434;1254;60469;-73
2023/09/04 08:39:36;;;;;;;7.90;5.30;;;;;;;24.38;52.20;100291.48;105572;1253;60764;-72
2023/09/04 08:42:07;;;;;;;8.30;5.10;;;;;;;24.53;51.57;100291.20;105458;1254;72832;-70
2023/09/04 08:44:35;;;;;;;10.70;5.60;;;;;;;24.63;51.00;100292.44;105875;1253;70136;-71
2023/09/04 08:47:03;;;;;;;6.20;4.40;;;;;;;24.72;50.55;100292.27;105273;1256;71561;-70
2023/09/04 08:49:30;;;;;;;7.80;4.80;;;;;;;24.88;50.22;100295.17;105299;1256;60497;-71
2023/09/04 08:51:58;;;;;;;6.80;5.00;;;;;;;25.07;49.87;100295.97;105505;1253;60542;-71
2023/09/04 08:54:26;;;;;;;5.00;4.40;;;;;;;25.27;49.35;100297.56;105220;1256;75252;-70
2023/09/04 08:56:53;;;;;;;4.60;4.10;;;;;;;25.50;48.78;100300.20;105299;1259;69183;-70
2023/09/04 08:59:20;;;;;;;4.60;4.20;;;;;;;25.72;48.27;100295.56;105198;1255;72473;-70
2023/09/04 09:01:48;;;;;;;4.80;3.80;;;;;;;25.94;47.24;100299.52;105172;1260;60544;-69
2023/09/04 09:04:16;;;;;;;5.30;4.30;;;;;;;26.15;46.43;100298.05;105294;1258;60305;-70
2023/09/04 09:06:44;;;;;;;5.10;4.20;;;;;;;26.43;46.12;100294.52;105156;1257;75238;-70
2023/09/04 09:09:11;;;;;;;6.90;4.60;;;;;;;26.71;45.82;100292.05;105104;1260;69139;-70
2023/09/04 09:11:39;;;;;;;7.50;4.60;;;;;;;26.98;45.57;100294.45;105358;1254;72448;-69
2023/09/04 09:14:06;;;;;;;6.00;4.40;;;;;;;27.12;45.29;100292.67;105234;1258;60509;-71
2023/09/04 09:16:34;;;;;;;7.60;4.50;;;;;;;27.25;45.20;100292.44;105467;1257;60534;-70
2023/09/04 09:19:02;;;;;;;5.50;4.40;;;;;;;27.38;44.75;100292.83;105389;1254;74379;-70
2023/09/04 09:21:30;;;;;;;5.80;4.70;;;;;;;27.47;44.98;100290.58;105462;1254;70315;-69
2023/09/04 09:24:13;;;;;;;6.10;4.80;;;;;;;27.54;44.49;100288.36;105473;1254;72894;-72
2023/09/04 09:26:42;;;;;;;4.90;4.10;;;;;;;27.58;44.05;100281.33;105263;1261;60425;-70
2023/09/04 09:29:12;;;;;;;7.60;4.30;;;;;;;27.58;44.02;100281.61;105140;1255;60548;-68
2023/09/04 09:31:42;;;;;;;4.40;3.70;;;;;;;27.54;43.78;100284.33;105502;1255;72912;-70
2023/09/04 09:34:10;;;;;;;5.20;4.00;;;;;;;27.50;43.33;100283.61;105684;1259;69150;-70
2023/09/04 09:36:38;;;;;;;3.90;3.50;;;;;;;27.46;42.87;100279.94;105489;1253;72463;-71
2023/09/04 09:39:06;;;;;;;4.70;4.30;;;;;;;27.39;42.59;100280.83;105649;1256;60513;-71
2023/09/04 09:41:34;;;;;;;5.00;4.30;;;;;;;27.29;42.29;100288.05;105462;1253;60497;-69
2023/09/04 09:44:03;;;;;;;4.50;4.10;;;;;;;27.22;42.15;100287.55;105487;1253;72995;-68
2023/09/04 09:46:36;;;;;;;5.00;4.20;;;;;;;27.15;42.10;100291.33;105331;1253;70594;-71
2023/09/04 09:49:05;;;;;;;5.10;4.00;;;;;;;27.12;42.60;100291.52;105702;1253;73500;-69
2023/09/04 09:51:35;;;;;;;6.40;5.30;;;;;;;27.12;43.38;100297.15;105273;1260;60691;-69
2023/09/04 09:54:05;;;;;;;4.50;4.00;;;;;;;27.16;44.31;100298.69;105258;1257;60893;-71
2023/09/04 09:56:32;;;;;;;4.80;4.00;;;;;;;27.24;44.64;100298.48;105232;1253;72672;-72
2023/09/04 09:59:00;;;;;;;5.40;3.80;;;;;;;27.52;44.53;100301.88;105345;1257;69423;-71
2023/09/04 10:01:31;;;;;;;4.70;4.20;;;;;;;27.88;44.19;100293.71;105384;1254;72605;-71
2023/09/04 10:04:00;;;;;;;4.80;3.90;;;;;;;28.28;43.72;100296.51;105244;1253;60534;-71
2023/09/04 10:06:34;;;;;;;6.40;4.60;;;;;;;28.68;43.29;100292.31;105239;1259;60490;-69
2023/09/04 10:09:02;;;;;;;8.70;5.10;;;;;;;29.10;42.52;100289.49;105230;1253;73875;-68
2023/09/04 10:11:29;;;;;;;5.70;4.80;;;;;;;29.30;42.03;100290.23;105357;1253;70497;-71
2023/09/04 10:14:04;;;;;;;8.00;5.10;;;;;;;29.28;41.89;100296.47;105142;1260;71418;-69
2023/09/04 10:16:32;;;;;;;6.20;4.30;;;;;;;29.18;42.06;100294.91;105329;1253;60541;-69
2023/09/04 10:19:01;;;;;;;5.60;4.60;;;;;;;29.07;42.00;100298.52;105317;1253;60570;-70
2023/09/04 10:21:32;;;;;;;5.30;4.70;;;;;;;28.86;42.36;100302.24;105335;1253;73807;-70
2023/09/04 10:24:02;;;;;;;5.70;4.80;;;;;;;28.72;42.82;100302.20;105279;1253;70001;-70
2023/09/04 10:26:39;;;;;;;6.20;4.60;;;;;;;28.64;42.88;100300.58;105399;1254;73695;-72
2023/09/04 10:29:10;;;;;;;7.00;4.40;;;;;;;28.67;42.58;100304.61;105127;1260;60545;-71
2023/09/04 10:31:37;;;;;;;6.20;5.20;;;;;;;28.77;42.78;100303.19;105404;1258;60448;-71
2023/09/04 10:34:05;;;;;;;7.90;4.80;;;;;;;29.09;42.60;100301.80;105268;1253;73839;-75
2023/09/04 10:36:34;;;;;;;4.70;4.00;;;;;;;29.60;41.38;100298.46;106169;1254;70654;-75
2023/09/04 10:39:01;;;;;;;6.90;4.80;;;;;;;30.11;40.28;100302.88;106669;1256;73738;-74
2023/09/04 10:41:29;;;;;;;5.60;4.80;;;;;;;30.67;39.76;100295.44;106444;1253;60459;-76
2023/09/04 10:43:57;;;;;;;5.70;4.70;;;;;;;31.27;38.96;100288.66;108433;1253;58954;-74
2023/09/04 10:46:24;;;;;;;5.90;4.60;;;;;;;31.81;38.02;100286.98;108233;1253;72337;-75
2023/09/04 10:48:52;;;;;;;6.10;4.70;;;;;;;32.27;37.56;100282.69;106893;1257;68708;-76
2023/09/04 10:51:30;;;;;;;4.70;4.30;;;;;;;32.56;36.79;100285.23;105970;1253;73262;-76
2023/09/04 10:54:03;;;;;;;6.10;4.20;;;;;;;32.58;36.39;100285.80;105670;1256;60426;-73
2023/09/04 10:56:53;;;;;;;4.60;4.20;;;;;;;32.48;36.11;100285.28;105591;1253;60557;-75
2023/09/04 10:59:20;;;;;;;5.40;3.90;;;;;;;32.33;36.17;100288.47;105366;1258;74247;-72
2023/09/04 11:01:49;;;;;;;5.00;4.20;;;;;;;32.24;36.37;100290.48;105752;1253;69710;-76
2023/09/04 11:04:35;;;;;;;4.60;4.10;;;;;;;32.16;36.51;100289.30;105648;1253;71479;-75
2023/09/04 11:07:21;;;;;;;5.40;4.20;;;;;;;32.13;36.42;100289.63;105766;1260;60945;-75
2023/09/04 11:09:52;;;;;;;4.80;4.10;;;;;;;32.24;36.36;100286.91;105818;1254;60453;-74
2023/09/04 11:12:20;;;;;;;4.80;4.00;;;;;;;32.36;36.29;100286.45;105554;1261;73979;-76
2023/09/04 11:14:51;;;;;;;4.90;4.10;;;;;;;32.54;36.06;100288.02;105756;1255;69203;-74
2023/09/04 11:17:22;;;;;;;4.50;4.10;;;;;;;32.79;35.87;100286.10;105884;1256;75413;-75
2023/09/04 11:19:50;;;;;;;4.40;4.00;;;;;;;32.84;35.60;100285.45;105671;1255;60961;-73
2023/09/04 11:22:24;;;;;;;5.40;3.90;;;;;;;32.79;35.33;100285.33;105586;1253;60651;-75
2023/09/04 11:24:55;;;;;;;5.30;3.70;;;;;;;32.72;35.26;100287.05;105866;1253;73845;-75